sensor_id;sensor_type;location;lat;lon;timestamp;P1;durP1;ratioP1;P2;durP2;ratioP2
19482;SDS011;9882;51.166;6.992;2022-08-25T00:02:06;3.75;;;1.98;;
19482;SDS011;9882;51.166;6.992;2022-08-25T00:04:36;5.57;;;2.42;;
19482;SDS011;9882;51.166;6.992;2022-08-25T00:07:05;8.15;;;2.70;;
19482;SDS011;9882;51.166;6.992;2022-08-25T00:09:34;3.03;;;2.28;;
19482;SDS011;9882;51.166;6.992;2022-08-25T00:12:05;8.05;;;2.15;;
19482;SDS011;9882;51.166;6.992;2022-08-25T00:14:35;4.72;;;2.05;;
19482;SDS011;9882;51.166;6.992;2022-08-25T00:17:04;4.47;;;2.35;;
19482;SDS011;9882;51.166;6.992;2022-08-25T00:19:34;4.85;;;2.55;;
19482;SDS011;9882;51.166;6.992;2022-08-25T00:22:04;2.80;;;2.28;;
19482;SDS011;9882;51.166;6.992;2022-08-25T00:24:33;9.30;;;2.22;;
19482;SDS011;9882;51.166;6.992;2022-08-25T00:27:04;3.63;;;1.88;;
19482;SDS011;9882;51.166;6.992;2022-08-25T00:29:33;4.90;;;2.05;;
19482;SDS011;9882;51.166;6.992;2022-08-25T00:32:04;2.58;;;2.05;;
19482;SDS011;9882;51.166;6.992;2022-08-25T00:34:34;11.05;;;2.45;;
19482;SDS011;9882;51.166;6.992;2022-08-25T00:37:05;5.25;;;2.00;;
19482;SDS011;9882;51.166;6.992;2022-08-25T00:39:35;4.60;;;2.40;;
19482;SDS011;9882;51.166;6.992;2022-08-25T00:42:06;3.92;;;1.77;;
19482;SDS011;9882;51.166;6.992;2022-08-25T00:44:36;3.95;;;2.40;;
19482;SDS011;9882;51.166;6.992;2022-08-25T00:47:05;8.02;;;2.38;;
19482;SDS011;9882;51.166;6.992;2022-08-25T00:49:35;5.40;;;2.40;;
19482;SDS011;9882;51.166;6.992;2022-08-25T00:52:08;5.35;;;2.35;;
19482;SDS011;9882;51.166;6.992;2022-08-25T00:54:41;3.25;;;2.17;;
19482;SDS011;9882;51.166;6.992;2022-08-25T00:57:14;2.00;;;1.77;;
19482;SDS011;9882;51.166;6.992;2022-08-25T00:59:46;9.52;;;2.05;;
19482;SDS011;9882;51.166;6.992;2022-08-25T01:02:15;4.10;;;2.30;;
19482;SDS011;9882;51.166;6.992;2022-08-25T01:04:44;4.25;;;2.50;;
19482;SDS011;9882;51.166;6.992;2022-08-25T01:07:13;4.50;;;2.10;;
19482;SDS011;9882;51.166;6.992;2022-08-25T01:09:44;5.28;;;2.30;;
19482;SDS011;9882;51.166;6.992;2022-08-25T01:12:16;2.28;;;1.77;;
19482;SDS011;9882;51.166;6.992;2022-08-25T01:14:44;11.70;;;2.67;;
19482;SDS011;9882;51.166;6.992;2022-08-25T01:17:14;6.43;;;2.55;;
19482;SDS011;9882;51.166;6.992;2022-08-25T01:19:43;2.92;;;2.00;;
19482;SDS011;9882;51.166;6.992;2022-08-25T01:22:13;3.80;;;2.10;;
19482;SDS011;9882;51.166;6.992;2022-08-25T01:24:44;3.03;;;2.20;;
19482;SDS011;9882;51.166;6.992;2022-08-25T01:27:19;5.22;;;2.60;;
19482;SDS011;9882;51.166;6.992;2022-08-25T01:29:47;3.67;;;2.30;;
19482;SDS011;9882;51.166;6.992;2022-08-25T01:32:16;3.05;;;2.08;;
19482;SDS011;9882;51.166;6.992;2022-08-25T01:34:45;3.60;;;2.13;;
19482;SDS011;9882;51.166;6.992;2022-08-25T01:37:15;3.45;;;2.10;;
19482;SDS011;9882;51.166;6.992;2022-08-25T01:39:45;2.33;;;1.95;;
19482;SDS011;9882;51.166;6.992;2022-08-25T01:42:18;4.82;;;2.50;;
19482;SDS011;9882;51.166;6.992;2022-08-25T01:45:05;12.05;;;3.17;;
19482;SDS011;9882;51.166;6.992;2022-08-25T01:47:36;4.20;;;2.08;;
19482;SDS011;9882;51.166;6.992;2022-08-25T01:50:05;4.03;;;1.90;;
19482;SDS011;9882;51.166;6.992;2022-08-25T01:52:40;3.20;;;2.40;;
19482;SDS011;9882;51.166;6.992;2022-08-25T01:55:16;3.05;;;2.22;;
19482;SDS011;9882;51.166;6.992;2022-08-25T01:57:46;4.55;;;2.63;;
19482;SDS011;9882;51.166;6.992;2022-08-25T02:00:15;3.58;;;2.20;;
19482;SDS011;9882;51.166;6.992;2022-08-25T02:02:45;9.55;;;2.17;;
19482;SDS011;9882;51.166;6.992;2022-08-25T02:05:14;4.43;;;2.28;;
19482;SDS011;9882;51.166;6.992;2022-08-25T02:07:46;2.65;;;2.17;;
19482;SDS011;9882;51.166;6.992;2022-08-25T02:10:15;3.38;;;2.03;;
19482;SDS011;9882;51.166;6.992;2022-08-25T02:12:43;3.80;;;2.33;;
19482;SDS011;9882;51.166;6.992;2022-08-25T02:15:12;2.83;;;2.17;;
19482;SDS011;9882;51.166;6.992;2022-08-25T02:17:41;5.03;;;2.15;;
19482;SDS011;9882;51.166;6.992;2022-08-25T02:20:09;12.80;;;2.85;;
19482;SDS011;9882;51.166;6.992;2022-08-25T02:22:38;4.55;;;2.00;;
19482;SDS011;9882;51.166;6.992;2022-08-25T02:25:08;3.58;;;2.15;;
19482;SDS011;9882;51.166;6.992;2022-08-25T02:27:37;2.45;;;2.03;;
19482;SDS011;9882;51.166;6.992;2022-08-25T02:30:06;4.78;;;2.47;;
19482;SDS011;9882;51.166;6.992;2022-08-25T02:32:35;3.22;;;2.05;;
19482;SDS011;9882;51.166;6.992;2022-08-25T02:35:05;3.83;;;2.10;;
19482;SDS011;9882;51.166;6.992;2022-08-25T02:37:35;5.60;;;2.40;;
19482;SDS011;9882;51.166;6.992;2022-08-25T02:40:04;6.10;;;2.55;;
19482;SDS011;9882;51.166;6.992;2022-08-25T02:42:35;7.25;;;2.58;;
19482;SDS011;9882;51.166;6.992;2022-08-25T02:45:05;4.43;;;2.30;;
19482;SDS011;9882;51.166;6.992;2022-08-25T02:47:34;4.85;;;2.40;;
19482;SDS011;9882;51.166;6.992;2022-08-25T02:50:03;2.53;;;2.00;;
19482;SDS011;9882;51.166;6.992;2022-08-25T02:52:33;2.83;;;2.05;;
19482;SDS011;9882;51.166;6.992;2022-08-25T02:55:02;4.55;;;2.20;;
19482;SDS011;9882;51.166;6.992;2022-08-25T02:57:32;5.18;;;2.78;;
19482;SDS011;9882;51.166;6.992;2022-08-25T03:00:03;6.75;;;2.83;;
19482;SDS011;9882;51.166;6.992;2022-08-25T03:02:33;3.80;;;2.20;;
19482;SDS011;9882;51.166;6.992;2022-08-25T03:05:02;4.90;;;2.72;;
19482;SDS011;9882;51.166;6.992;2022-08-25T03:07:33;5.72;;;2.50;;
19482;SDS011;9882;51.166;6.992;2022-08-25T03:10:06;5.45;;;2.35;;
19482;SDS011;9882;51.166;6.992;2022-08-25T03:12:37;7.40;;;2.88;;
19482;SDS011;9882;51.166;6.992;2022-08-25T03:15:09;3.83;;;2.33;;
19482;SDS011;9882;51.166;6.992;2022-08-25T03:17:38;5.45;;;2.45;;
19482;SDS011;9882;51.166;6.992;2022-08-25T03:20:07;3.25;;;2.28;;
19482;SDS011;9882;51.166;6.992;2022-08-25T03:22:37;8.43;;;2.63;;
19482;SDS011;9882;51.166;6.992;2022-08-25T03:25:06;7.60;;;2.90;;
19482;SDS011;9882;51.166;6.992;2022-08-25T03:27:50;3.45;;;2.15;;
19482;SDS011;9882;51.166;6.992;2022-08-25T03:30:20;6.28;;;2.70;;
19482;SDS011;9882;51.166;6.992;2022-08-25T03:32:49;3.15;;;2.50;;
19482;SDS011;9882;51.166;6.992;2022-08-25T03:35:17;5.63;;;2.60;;
19482;SDS011;9882;51.166;6.992;2022-08-25T03:37:46;3.15;;;2.33;;
19482;SDS011;9882;51.166;6.992;2022-08-25T03:40:15;3.75;;;2.58;;
19482;SDS011;9882;51.166;6.992;2022-08-25T03:42:44;4.13;;;2.60;;
19482;SDS011;9882;51.166;6.992;2022-08-25T03:45:14;3.58;;;2.35;;
19482;SDS011;9882;51.166;6.992;2022-08-25T03:47:46;11.63;;;2.45;;
19482;SDS011;9882;51.166;6.992;2022-08-25T03:50:16;5.13;;;2.60;;
19482;SDS011;9882;51.166;6.992;2022-08-25T03:52:49;8.00;;;2.58;;
19482;SDS011;9882;51.166;6.992;2022-08-25T03:55:19;4.40;;;2.33;;
19482;SDS011;9882;51.166;6.992;2022-08-25T03:57:52;2.53;;;2.00;;
19482;SDS011;9882;51.166;6.992;2022-08-25T04:00:22;3.38;;;2.58;;
19482;SDS011;9882;51.166;6.992;2022-08-25T04:02:52;2.85;;;2.13;;
19482;SDS011;9882;51.166;6.992;2022-08-25T04:05:20;4.25;;;2.75;;
19482;SDS011;9882;51.166;6.992;2022-08-25T04:07:49;3.42;;;2.38;;
19482;SDS011;9882;51.166;6.992;2022-08-25T04:10:19;7.05;;;3.15;;
19482;SDS011;9882;51.166;6.992;2022-08-25T04:12:48;3.45;;;2.63;;
19482;SDS011;9882;51.166;6.992;2022-08-25T04:15:16;6.85;;;2.80;;
19482;SDS011;9882;51.166;6.992;2022-08-25T04:17:45;4.03;;;2.53;;
19482;SDS011;9882;51.166;6.992;2022-08-25T04:20:15;8.13;;;3.25;;
19482;SDS011;9882;51.166;6.992;2022-08-25T04:22:44;7.03;;;2.90;;
19482;SDS011;9882;51.166;6.992;2022-08-25T04:25:13;5.40;;;2.63;;
19482;SDS011;9882;51.166;6.992;2022-08-25T04:27:42;4.43;;;2.35;;
19482;SDS011;9882;51.166;6.992;2022-08-25T04:30:11;5.82;;;3.20;;
19482;SDS011;9882;51.166;6.992;2022-08-25T04:32:40;5.28;;;2.90;;
19482;SDS011;9882;51.166;6.992;2022-08-25T04:35:09;5.65;;;2.88;;
19482;SDS011;9882;51.166;6.992;2022-08-25T04:37:39;7.28;;;2.78;;
19482;SDS011;9882;51.166;6.992;2022-08-25T04:40:08;4.03;;;2.67;;
19482;SDS011;9882;51.166;6.992;2022-08-25T04:42:37;3.88;;;2.60;;
19482;SDS011;9882;51.166;6.992;2022-08-25T04:45:06;4.78;;;3.03;;
19482;SDS011;9882;51.166;6.992;2022-08-25T04:47:36;3.50;;;2.63;;
19482;SDS011;9882;51.166;6.992;2022-08-25T04:50:06;4.75;;;3.03;;
19482;SDS011;9882;51.166;6.992;2022-08-25T04:52:35;7.97;;;3.03;;
19482;SDS011;9882;51.166;6.992;2022-08-25T04:55:05;5.22;;;2.65;;
19482;SDS011;9882;51.166;6.992;2022-08-25T04:57:34;6.25;;;3.10;;
19482;SDS011;9882;51.166;6.992;2022-08-25T05:00:03;7.47;;;2.97;;
19482;SDS011;9882;51.166;6.992;2022-08-25T05:02:33;7.30;;;3.22;;
19482;SDS011;9882;51.166;6.992;2022-08-25T05:05:02;5.55;;;2.65;;
19482;SDS011;9882;51.166;6.992;2022-08-25T05:07:32;3.03;;;2.55;;
19482;SDS011;9882;51.166;6.992;2022-08-25T05:10:01;6.97;;;3.42;;
19482;SDS011;9882;51.166;6.992;2022-08-25T05:12:31;6.88;;;3.40;;
19482;SDS011;9882;51.166;6.992;2022-08-25T05:15:03;6.95;;;3.03;;
19482;SDS011;9882;51.166;6.992;2022-08-25T05:17:46;6.32;;;3.17;;
19482;SDS011;9882;51.166;6.992;2022-08-25T05:20:19;5.82;;;3.28;;
19482;SDS011;9882;51.166;6.992;2022-08-25T05:22:48;7.03;;;3.08;;
19482;SDS011;9882;51.166;6.992;2022-08-25T05:25:17;6.10;;;3.40;;
19482;SDS011;9882;51.166;6.992;2022-08-25T05:27:47;6.05;;;3.05;;
19482;SDS011;9882;51.166;6.992;2022-08-25T05:30:16;8.75;;;3.63;;
19482;SDS011;9882;51.166;6.992;2022-08-25T05:32:45;5.40;;;3.05;;
19482;SDS011;9882;51.166;6.992;2022-08-25T05:35:13;9.48;;;3.50;;
19482;SDS011;9882;51.166;6.992;2022-08-25T05:37:42;9.65;;;4.13;;
19482;SDS011;9882;51.166;6.992;2022-08-25T05:40:11;7.97;;;3.40;;
19482;SDS011;9882;51.166;6.992;2022-08-25T05:42:40;6.35;;;3.17;;
19482;SDS011;9882;51.166;6.992;2022-08-25T05:45:10;7.60;;;3.10;;
19482;SDS011;9882;51.166;6.992;2022-08-25T05:47:39;7.28;;;3.35;;
19482;SDS011;9882;51.166;6.992;2022-08-25T05:50:08;10.88;;;3.80;;
19482;SDS011;9882;51.166;6.992;2022-08-25T05:52:37;6.55;;;3.65;;
19482;SDS011;9882;51.166;6.992;2022-08-25T05:55:06;8.93;;;3.90;;
19482;SDS011;9882;51.166;6.992;2022-08-25T05:57:38;5.22;;;3.28;;
19482;SDS011;9882;51.166;6.992;2022-08-25T06:00:07;5.53;;;2.83;;
19482;SDS011;9882;51.166;6.992;2022-08-25T06:02:41;5.82;;;2.95;;
19482;SDS011;9882;51.166;6.992;2022-08-25T06:05:12;9.25;;;3.85;;
19482;SDS011;9882;51.166;6.992;2022-08-25T06:07:43;7.60;;;3.40;;
19482;SDS011;9882;51.166;6.992;2022-08-25T06:10:12;5.43;;;2.75;;
19482;SDS011;9882;51.166;6.992;2022-08-25T06:12:42;9.65;;;3.10;;
19482;SDS011;9882;51.166;6.992;2022-08-25T06:15:12;5.78;;;3.17;;
19482;SDS011;9882;51.166;6.992;2022-08-25T06:17:43;12.98;;;4.15;;
19482;SDS011;9882;51.166;6.992;2022-08-25T06:20:13;5.63;;;2.97;;
19482;SDS011;9882;51.166;6.992;2022-08-25T06:22:43;7.15;;;3.35;;
19482;SDS011;9882;51.166;6.992;2022-08-25T06:25:13;15.40;;;4.03;;
19482;SDS011;9882;51.166;6.992;2022-08-25T06:27:43;7.22;;;3.20;;
19482;SDS011;9882;51.166;6.992;2022-08-25T06:30:13;7.50;;;3.55;;
19482;SDS011;9882;51.166;6.992;2022-08-25T06:32:48;6.63;;;3.05;;
19482;SDS011;9882;51.166;6.992;2022-08-25T06:35:18;6.22;;;2.85;;
19482;SDS011;9882;51.166;6.992;2022-08-25T06:37:47;6.97;;;3.47;;
19482;SDS011;9882;51.166;6.992;2022-08-25T06:40:15;5.13;;;3.25;;
19482;SDS011;9882;51.166;6.992;2022-08-25T06:42:46;9.57;;;4.00;;
19482;SDS011;9882;51.166;6.992;2022-08-25T06:45:17;6.55;;;3.38;;
19482;SDS011;9882;51.166;6.992;2022-08-25T06:47:46;7.50;;;3.38;;
19482;SDS011;9882;51.166;6.992;2022-08-25T06:50:16;9.35;;;3.53;;
19482;SDS011;9882;51.166;6.992;2022-08-25T06:52:45;6.57;;;3.63;;
19482;SDS011;9882;51.166;6.992;2022-08-25T06:55:13;10.68;;;3.55;;
19482;SDS011;9882;51.166;6.992;2022-08-25T06:57:42;6.63;;;3.03;;
19482;SDS011;9882;51.166;6.992;2022-08-25T07:00:11;11.63;;;3.83;;
19482;SDS011;9882;51.166;6.992;2022-08-25T07:02:40;9.00;;;3.50;;
19482;SDS011;9882;51.166;6.992;2022-08-25T07:05:09;6.88;;;3.22;;
19482;SDS011;9882;51.166;6.992;2022-08-25T07:07:40;6.38;;;3.28;;
19482;SDS011;9882;51.166;6.992;2022-08-25T07:10:10;9.88;;;3.50;;
19482;SDS011;9882;51.166;6.992;2022-08-25T07:12:39;6.57;;;3.33;;
19482;SDS011;9882;51.166;6.992;2022-08-25T07:15:09;6.10;;;2.95;;
19482;SDS011;9882;51.166;6.992;2022-08-25T07:17:46;8.13;;;3.45;;
19482;SDS011;9882;51.166;6.992;2022-08-25T07:20:15;9.52;;;3.70;;
19482;SDS011;9882;51.166;6.992;2022-08-25T07:22:45;4.80;;;2.88;;
19482;SDS011;9882;51.166;6.992;2022-08-25T07:25:14;13.70;;;3.92;;
19482;SDS011;9882;51.166;6.992;2022-08-25T07:27:44;10.10;;;3.70;;
19482;SDS011;9882;51.166;6.992;2022-08-25T07:30:21;6.13;;;3.25;;
19482;SDS011;9882;51.166;6.992;2022-08-25T07:32:50;8.57;;;3.20;;
19482;SDS011;9882;51.166;6.992;2022-08-25T07:35:19;6.22;;;3.35;;
19482;SDS011;9882;51.166;6.992;2022-08-25T07:37:52;6.57;;;3.35;;
19482;SDS011;9882;51.166;6.992;2022-08-25T07:40:23;10.82;;;3.83;;
19482;SDS011;9882;51.166;6.992;2022-08-25T07:42:56;7.43;;;3.55;;
19482;SDS011;9882;51.166;6.992;2022-08-25T07:45:29;7.32;;;3.10;;
19482;SDS011;9882;51.166;6.992;2022-08-25T07:48:00;10.32;;;3.90;;
19482;SDS011;9882;51.166;6.992;2022-08-25T07:50:31;9.00;;;3.42;;
19482;SDS011;9882;51.166;6.992;2022-08-25T07:53:02;11.80;;;3.60;;
19482;SDS011;9882;51.166;6.992;2022-08-25T07:55:32;9.30;;;3.65;;
19482;SDS011;9882;51.166;6.992;2022-08-25T07:58:02;6.43;;;3.30;;
19482;SDS011;9882;51.166;6.992;2022-08-25T08:00:32;10.02;;;3.50;;
19482;SDS011;9882;51.166;6.992;2022-08-25T08:03:03;7.63;;;3.72;;
19482;SDS011;9882;51.166;6.992;2022-08-25T08:05:32;7.18;;;3.78;;
19482;SDS011;9882;51.166;6.992;2022-08-25T08:08:03;10.27;;;3.53;;
19482;SDS011;9882;51.166;6.992;2022-08-25T08:10:32;7.00;;;3.63;;
19482;SDS011;9882;51.166;6.992;2022-08-25T08:13:13;7.40;;;3.65;;
19482;SDS011;9882;51.166;6.992;2022-08-25T08:15:44;8.60;;;3.20;;
19482;SDS011;9882;51.166;6.992;2022-08-25T08:18:13;8.02;;;3.28;;
19482;SDS011;9882;51.166;6.992;2022-08-25T08:20:43;7.00;;;3.50;;
19482;SDS011;9882;51.166;6.992;2022-08-25T08:23:14;8.80;;;3.70;;
19482;SDS011;9882;51.166;6.992;2022-08-25T08:25:43;7.38;;;3.28;;
19482;SDS011;9882;51.166;6.992;2022-08-25T08:28:11;8.38;;;3.67;;
19482;SDS011;9882;51.166;6.992;2022-08-25T08:30:41;5.68;;;3.17;;
19482;SDS011;9882;51.166;6.992;2022-08-25T08:33:10;9.85;;;3.70;;
19482;SDS011;9882;51.166;6.992;2022-08-25T08:35:39;8.30;;;3.35;;
19482;SDS011;9882;51.166;6.992;2022-08-25T08:38:08;7.30;;;3.67;;
19482;SDS011;9882;51.166;6.992;2022-08-25T08:40:43;7.80;;;3.65;;
19482;SDS011;9882;51.166;6.992;2022-08-25T08:43:36;7.95;;;3.58;;
19482;SDS011;9882;51.166;6.992;2022-08-25T08:46:07;9.95;;;3.33;;
19482;SDS011;9882;51.166;6.992;2022-08-25T08:48:43;5.32;;;3.40;;
19482;SDS011;9882;51.166;6.992;2022-08-25T08:51:21;7.38;;;3.42;;
19482;SDS011;9882;51.166;6.992;2022-08-25T08:53:54;5.93;;;3.40;;
19482;SDS011;9882;51.166;6.992;2022-08-25T08:56:27;9.95;;;3.85;;
19482;SDS011;9882;51.166;6.992;2022-08-25T08:58:59;5.22;;;3.10;;
19482;SDS011;9882;51.166;6.992;2022-08-25T09:01:32;7.88;;;3.33;;
19482;SDS011;9882;51.166;6.992;2022-08-25T09:04:08;10.45;;;3.58;;
19482;SDS011;9882;51.166;6.992;2022-08-25T09:06:40;10.05;;;3.25;;
19482;SDS011;9882;51.166;6.992;2022-08-25T09:09:11;7.35;;;3.05;;
19482;SDS011;9882;51.166;6.992;2022-08-25T09:11:48;5.10;;;3.03;;
19482;SDS011;9882;51.166;6.992;2022-08-25T09:14:33;5.85;;;3.10;;
19482;SDS011;9882;51.166;6.992;2022-08-25T09:17:13;4.90;;;2.80;;
19482;SDS011;9882;51.166;6.992;2022-08-25T09:20:05;9.13;;;3.40;;
19482;SDS011;9882;51.166;6.992;2022-08-25T09:22:46;6.47;;;3.10;;
19482;SDS011;9882;51.166;6.992;2022-08-25T09:25:29;8.77;;;3.90;;
19482;SDS011;9882;51.166;6.992;2022-08-25T09:28:17;8.38;;;3.00;;
19482;SDS011;9882;51.166;6.992;2022-08-25T09:30:50;6.53;;;3.28;;
19482;SDS011;9882;51.166;6.992;2022-08-25T09:33:24;3.33;;;2.47;;
19482;SDS011;9882;51.166;6.992;2022-08-25T09:35:55;6.88;;;3.10;;
19482;SDS011;9882;51.166;6.992;2022-08-25T09:38:24;5.13;;;3.08;;
19482;SDS011;9882;51.166;6.992;2022-08-25T09:40:55;5.22;;;3.05;;
19482;SDS011;9882;51.166;6.992;2022-08-25T09:43:30;6.45;;;3.28;;
19482;SDS011;9882;51.166;6.992;2022-08-25T09:46:02;9.60;;;3.40;;
19482;SDS011;9882;51.166;6.992;2022-08-25T09:48:42;6.18;;;2.80;;
19482;SDS011;9882;51.166;6.992;2022-08-25T09:51:17;11.00;;;3.53;;
19482;SDS011;9882;51.166;6.992;2022-08-25T09:53:49;8.40;;;2.53;;
19482;SDS011;9882;51.166;6.992;2022-08-25T09:56:21;7.90;;;3.40;;
19482;SDS011;9882;51.166;6.992;2022-08-25T09:58:52;6.40;;;3.03;;
19482;SDS011;9882;51.166;6.992;2022-08-25T10:01:29;9.25;;;2.90;;
19482;SDS011;9882;51.166;6.992;2022-08-25T10:03:59;6.85;;;3.17;;
19482;SDS011;9882;51.166;6.992;2022-08-25T10:06:33;7.43;;;3.42;;
19482;SDS011;9882;51.166;6.992;2022-08-25T10:09:10;9.75;;;3.50;;
19482;SDS011;9882;51.166;6.992;2022-08-25T10:11:49;5.55;;;3.00;;
19482;SDS011;9882;51.166;6.992;2022-08-25T10:14:25;4.13;;;2.53;;
19482;SDS011;9882;51.166;6.992;2022-08-25T10:17:10;9.38;;;2.85;;
19482;SDS011;9882;51.166;6.992;2022-08-25T10:19:41;8.95;;;3.08;;
19482;SDS011;9882;51.166;6.992;2022-08-25T10:22:11;8.77;;;3.00;;
19482;SDS011;9882;51.166;6.992;2022-08-25T10:24:50;5.30;;;2.75;;
19482;SDS011;9882;51.166;6.992;2022-08-25T10:27:22;5.57;;;2.90;;
19482;SDS011;9882;51.166;6.992;2022-08-25T10:30:06;7.20;;;3.03;;
19482;SDS011;9882;51.166;6.992;2022-08-25T10:32:53;5.25;;;2.83;;
19482;SDS011;9882;51.166;6.992;2022-08-25T10:35:34;4.88;;;2.83;;
19482;SDS011;9882;51.166;6.992;2022-08-25T10:38:18;11.40;;;3.10;;
19482;SDS011;9882;51.166;6.992;2022-08-25T10:41:02;7.15;;;2.95;;
19482;SDS011;9882;51.166;6.992;2022-08-25T10:43:46;6.30;;;2.80;;
19482;SDS011;9882;51.166;6.992;2022-08-25T10:46:24;6.05;;;2.85;;
19482;SDS011;9882;51.166;6.992;2022-08-25T10:48:58;5.57;;;2.90;;
19482;SDS011;9882;51.166;6.992;2022-08-25T10:51:38;5.30;;;3.10;;
19482;SDS011;9882;51.166;6.992;2022-08-25T10:54:17;5.65;;;2.80;;
19482;SDS011;9882;51.166;6.992;2022-08-25T10:56:55;7.40;;;3.28;;
19482;SDS011;9882;51.166;6.992;2022-08-25T11:02:31;8.98;;;3.58;;
19482;SDS011;9882;51.166;6.992;2022-08-25T11:05:26;5.68;;;2.95;;
19482;SDS011;9882;51.166;6.992;2022-08-25T11:08:00;9.82;;;3.03;;
19482;SDS011;9882;51.166;6.992;2022-08-25T11:10:36;6.32;;;3.05;;
19482;SDS011;9882;51.166;6.992;2022-08-25T11:13:11;7.05;;;2.85;;
19482;SDS011;9882;51.166;6.992;2022-08-25T11:15:48;16.42;;;3.10;;
19482;SDS011;9882;51.166;6.992;2022-08-25T11:18:43;6.13;;;2.90;;
19482;SDS011;9882;51.166;6.992;2022-08-25T11:21:19;6.38;;;2.97;;
19482;SDS011;9882;51.166;6.992;2022-08-25T11:23:54;8.60;;;2.72;;
19482;SDS011;9882;51.166;6.992;2022-08-25T11:26:32;5.00;;;2.95;;
19482;SDS011;9882;51.166;6.992;2022-08-25T11:29:04;6.43;;;3.03;;
19482;SDS011;9882;51.166;6.992;2022-08-25T11:31:39;6.03;;;2.90;;
19482;SDS011;9882;51.166;6.992;2022-08-25T11:34:13;7.65;;;3.05;;
19482;SDS011;9882;51.166;6.992;2022-08-25T11:36:48;4.95;;;3.13;;
19482;SDS011;9882;51.166;6.992;2022-08-25T11:39:20;7.95;;;2.92;;
19482;SDS011;9882;51.166;6.992;2022-08-25T11:42:04;8.40;;;3.05;;
19482;SDS011;9882;51.166;6.992;2022-08-25T11:44:47;5.70;;;3.03;;
19482;SDS011;9882;51.166;6.992;2022-08-25T11:47:31;5.50;;;2.85;;
19482;SDS011;9882;51.166;6.992;2022-08-25T11:50:27;4.07;;;2.45;;
19482;SDS011;9882;51.166;6.992;2022-08-25T11:52:59;5.38;;;2.38;;
19482;SDS011;9882;51.166;6.992;2022-08-25T11:55:45;4.55;;;2.97;;
19482;SDS011;9882;51.166;6.992;2022-08-25T11:58:22;6.85;;;2.72;;
19482;SDS011;9882;51.166;6.992;2022-08-25T12:01:02;4.63;;;2.70;;
19482;SDS011;9882;51.166;6.992;2022-08-25T12:03:45;5.55;;;3.20;;
19482;SDS011;9882;51.166;6.992;2022-08-25T12:06:23;5.78;;;2.85;;
19482;SDS011;9882;51.166;6.992;2022-08-25T12:11:48;7.05;;;3.05;;
19482;SDS011;9882;51.166;6.992;2022-08-25T12:14:34;4.03;;;2.53;;
19482;SDS011;9882;51.166;6.992;2022-08-25T12:17:17;19.05;;;3.63;;
19482;SDS011;9882;51.166;6.992;2022-08-25T12:19:58;7.65;;;2.72;;
19482;SDS011;9882;51.166;6.992;2022-08-25T12:22:52;3.60;;;2.65;;
19482;SDS011;9882;51.166;6.992;2022-08-25T12:28:30;4.93;;;2.63;;
19482;SDS011;9882;51.166;6.992;2022-08-25T12:31:10;5.38;;;2.67;;
19482;SDS011;9882;51.166;6.992;2022-08-25T12:33:52;3.90;;;2.50;;
19482;SDS011;9882;51.166;6.992;2022-08-25T12:36:33;7.05;;;3.10;;
19482;SDS011;9882;51.166;6.992;2022-08-25T12:39:15;6.78;;;2.72;;
19482;SDS011;9882;51.166;6.992;2022-08-25T12:41:54;7.15;;;2.92;;
19482;SDS011;9882;51.166;6.992;2022-08-25T12:44:35;5.32;;;2.78;;
19482;SDS011;9882;51.166;6.992;2022-08-25T12:47:12;8.20;;;3.25;;
19482;SDS011;9882;51.166;6.992;2022-08-25T12:53:00;5.15;;;3.05;;
19482;SDS011;9882;51.166;6.992;2022-08-25T12:55:39;6.75;;;3.10;;
19482;SDS011;9882;51.166;6.992;2022-08-25T12:58:12;8.30;;;3.28;;
19482;SDS011;9882;51.166;6.992;2022-08-25T13:00:54;6.45;;;3.10;;
19482;SDS011;9882;51.166;6.992;2022-08-25T13:03:43;4.88;;;2.45;;
19482;SDS011;9882;51.166;6.992;2022-08-25T13:06:30;7.32;;;2.83;;
19482;SDS011;9882;51.166;6.992;2022-08-25T13:09:21;5.85;;;2.88;;
19482;SDS011;9882;51.166;6.992;2022-08-25T13:12:16;5.07;;;2.50;;
19482;SDS011;9882;51.166;6.992;2022-08-25T13:14:51;6.28;;;2.70;;
19482;SDS011;9882;51.166;6.992;2022-08-25T13:17:24;9.68;;;3.28;;
19482;SDS011;9882;51.166;6.992;2022-08-25T13:22:42;3.97;;;2.65;;
19482;SDS011;9882;51.166;6.992;2022-08-25T13:25:14;6.72;;;2.90;;
19482;SDS011;9882;51.166;6.992;2022-08-25T13:27:48;9.38;;;3.22;;
19482;SDS011;9882;51.166;6.992;2022-08-25T13:30:21;11.73;;;3.45;;
19482;SDS011;9882;51.166;6.992;2022-08-25T13:32:53;5.15;;;2.80;;
19482;SDS011;9882;51.166;6.992;2022-08-25T13:35:23;6.50;;;3.15;;
19482;SDS011;9882;51.166;6.992;2022-08-25T13:38:10;5.05;;;3.05;;
19482;SDS011;9882;51.166;6.992;2022-08-25T13:40:39;5.20;;;2.80;;
19482;SDS011;9882;51.166;6.992;2022-08-25T13:43:10;4.47;;;2.53;;
19482;SDS011;9882;51.166;6.992;2022-08-25T13:45:41;5.07;;;2.97;;
19482;SDS011;9882;51.166;6.992;2022-08-25T13:48:11;4.40;;;2.53;;
19482;SDS011;9882;51.166;6.992;2022-08-25T13:50:41;7.25;;;3.40;;
19482;SDS011;9882;51.166;6.992;2022-08-25T13:53:12;7.50;;;2.97;;
19482;SDS011;9882;51.166;6.992;2022-08-25T13:55:47;9.90;;;3.20;;
19482;SDS011;9882;51.166;6.992;2022-08-25T13:58:21;9.63;;;3.35;;
19482;SDS011;9882;51.166;6.992;2022-08-25T14:01:00;3.17;;;2.50;;
19482;SDS011;9882;51.166;6.992;2022-08-25T14:03:35;7.88;;;3.28;;
19482;SDS011;9882;51.166;6.992;2022-08-25T14:06:06;5.45;;;2.88;;
19482;SDS011;9882;51.166;6.992;2022-08-25T14:08:37;5.20;;;2.70;;
19482;SDS011;9882;51.166;6.992;2022-08-25T14:11:11;7.25;;;2.85;;
19482;SDS011;9882;51.166;6.992;2022-08-25T14:13:43;14.82;;;2.97;;
19482;SDS011;9882;51.166;6.992;2022-08-25T14:16:12;4.32;;;2.60;;
19482;SDS011;9882;51.166;6.992;2022-08-25T14:18:47;8.30;;;2.90;;
19482;SDS011;9882;51.166;6.992;2022-08-25T14:21:23;5.03;;;2.72;;
19482;SDS011;9882;51.166;6.992;2022-08-25T14:23:54;4.82;;;2.50;;
19482;SDS011;9882;51.166;6.992;2022-08-25T14:26:23;5.13;;;2.80;;
19482;SDS011;9882;51.166;6.992;2022-08-25T14:29:00;6.25;;;2.70;;
19482;SDS011;9882;51.166;6.992;2022-08-25T14:31:29;4.63;;;2.40;;
19482;SDS011;9882;51.166;6.992;2022-08-25T14:34:02;5.35;;;2.80;;
19482;SDS011;9882;51.166;6.992;2022-08-25T14:36:32;6.13;;;2.80;;
19482;SDS011;9882;51.166;6.992;2022-08-25T14:39:02;3.38;;;2.38;;
19482;SDS011;9882;51.166;6.992;2022-08-25T14:41:33;4.65;;;2.70;;
19482;SDS011;9882;51.166;6.992;2022-08-25T14:44:04;3.75;;;2.53;;
19482;SDS011;9882;51.166;6.992;2022-08-25T14:46:33;4.55;;;2.63;;
19482;SDS011;9882;51.166;6.992;2022-08-25T14:49:05;4.05;;;2.58;;
19482;SDS011;9882;51.166;6.992;2022-08-25T14:51:37;6.75;;;2.88;;
19482;SDS011;9882;51.166;6.992;2022-08-25T14:54:11;4.30;;;2.72;;
19482;SDS011;9882;51.166;6.992;2022-08-25T14:56:44;7.20;;;3.28;;
19482;SDS011;9882;51.166;6.992;2022-08-25T14:59:15;3.10;;;2.30;;
19482;SDS011;9882;51.166;6.992;2022-08-25T15:01:44;6.00;;;2.47;;
19482;SDS011;9882;51.166;6.992;2022-08-25T15:04:14;4.32;;;2.55;;
19482;SDS011;9882;51.166;6.992;2022-08-25T15:06:45;2.42;;;2.22;;
19482;SDS011;9882;51.166;6.992;2022-08-25T15:09:17;5.18;;;2.78;;
19482;SDS011;9882;51.166;6.992;2022-08-25T15:11:47;6.38;;;2.70;;
19482;SDS011;9882;51.166;6.992;2022-08-25T15:14:19;4.32;;;2.13;;
19482;SDS011;9882;51.166;6.992;2022-08-25T15:16:49;3.95;;;2.22;;
19482;SDS011;9882;51.166;6.992;2022-08-25T15:19:20;4.53;;;2.35;;
19482;SDS011;9882;51.166;6.992;2022-08-25T15:21:50;6.07;;;2.85;;
19482;SDS011;9882;51.166;6.992;2022-08-25T15:24:20;5.22;;;2.35;;
19482;SDS011;9882;51.166;6.992;2022-08-25T15:26:51;3.80;;;2.30;;
19482;SDS011;9882;51.166;6.992;2022-08-25T15:29:24;5.47;;;2.40;;
19482;SDS011;9882;51.166;6.992;2022-08-25T15:31:55;7.70;;;2.70;;
19482;SDS011;9882;51.166;6.992;2022-08-25T15:34:24;4.88;;;2.55;;
19482;SDS011;9882;51.166;6.992;2022-08-25T15:36:55;5.70;;;2.50;;
19482;SDS011;9882;51.166;6.992;2022-08-25T15:39:25;4.95;;;2.25;;
19482;SDS011;9882;51.166;6.992;2022-08-25T15:41:53;4.22;;;2.33;;
19482;SDS011;9882;51.166;6.992;2022-08-25T15:44:24;6.03;;;2.72;;
19482;SDS011;9882;51.166;6.992;2022-08-25T15:46:55;5.82;;;2.55;;
19482;SDS011;9882;51.166;6.992;2022-08-25T15:49:24;6.32;;;2.58;;